createdAt,value
2023-02-07T00:00:15.172Z,5.95
2023-02-07T00:05:40.493Z,6.43
2023-02-07T00:08:09.009Z,5.57
2023-02-07T00:10:36.668Z,6.10
2023-02-07T00:13:06.330Z,5.70
2023-02-07T00:15:34.555Z,6.18
2023-02-07T00:18:02.504Z,6.10
2023-02-07T00:20:30.430Z,6.57
2023-02-07T00:23:03.484Z,6.43
2023-02-07T00:25:30.464Z,6.05
2023-02-07T00:28:02.413Z,5.60
2023-02-07T00:30:30.536Z,6.20
2023-02-07T00:33:04.526Z,5.93
2023-02-07T00:35:32.389Z,6.43
2023-02-07T00:38:00.393Z,5.63
2023-02-07T00:40:28.466Z,5.78
2023-02-07T00:45:48.554Z,6.82
2023-02-07T00:51:13.074Z,5.35
2023-02-07T00:56:33.277Z,5.40
2023-02-07T00:59:05.654Z,5.53
2023-02-07T01:01:32.748Z,5.57
2023-02-07T01:04:05.596Z,6.13
2023-02-07T01:06:36.986Z,5.57
2023-02-07T01:09:11.161Z,5.97
2023-02-07T01:11:38.388Z,5.72
2023-02-07T01:14:06.537Z,5.68
2023-02-07T01:16:58.487Z,5.75
2023-02-07T01:19:26.443Z,5.75
2023-02-07T01:21:54.567Z,5.47
2023-02-07T01:24:26.385Z,6.03
2023-02-07T01:27:19.643Z,6.25
2023-02-07T01:29:46.488Z,5.53
2023-02-07T01:32:14.600Z,5.32
2023-02-07T01:34:42.517Z,5.53
2023-02-07T01:37:14.482Z,5.57
2023-02-07T01:39:42.370Z,5.15
2023-02-07T01:42:34.463Z,4.45
2023-02-07T01:45:05.193Z,5.28
2023-02-07T01:50:26.834Z,5.43
2023-02-07T01:52:55.563Z,5.53
2023-02-07T01:55:30.835Z,4.60
2023-02-07T01:57:59.521Z,5.07
2023-02-07T02:00:57.713Z,5.30
2023-02-07T02:03:24.595Z,5.55
2023-02-07T02:06:03.697Z,5.45
2023-02-07T02:08:32.378Z,5.05
2023-02-07T02:11:31.356Z,5.10
2023-02-07T02:14:38.198Z,5.72
2023-02-07T02:17:21.320Z,5.20
2023-02-07T02:23:02.549Z,4.53
2023-02-07T02:25:45.579Z,4.60
2023-02-07T02:28:48.844Z,4.78
2023-02-07T02:31:40.793Z,5.28
2023-02-07T02:34:32.142Z,5.40
2023-02-07T02:37:45.256Z,5.45
2023-02-07T02:40:20.343Z,4.10
2023-02-07T02:43:03.602Z,5.28
2023-02-07T02:45:37.120Z,5.65
2023-02-07T02:48:07.982Z,4.72
2023-02-07T02:53:57.650Z,5.28
2023-02-07T02:56:58.316Z,4.80
2023-02-07T02:59:34.291Z,5.65
2023-02-07T03:02:23.382Z,5.20
2023-02-07T03:05:11.510Z,5.18
2023-02-07T03:07:56.549Z,4.90
2023-02-07T03:10:46.914Z,5.28
2023-02-07T03:13:18.374Z,5.35
2023-02-07T03:19:09.090Z,5.30
2023-02-07T03:21:47.039Z,5.40
2023-02-07T03:27:17.089Z,6.05
2023-02-07T03:33:19.966Z,5.07
2023-02-07T03:36:23.884Z,5.28
2023-02-07T03:39:01.529Z,4.85
2023-02-07T03:41:42.363Z,6.22
2023-02-07T03:44:14.845Z,6.20
2023-02-07T03:46:42.527Z,6.22
2023-02-07T03:49:34.429Z,6.40
2023-02-07T03:52:02.578Z,6.18
2023-02-07T03:54:30.664Z,6.13
2023-02-07T03:56:58.563Z,5.80
2023-02-07T03:59:55.498Z,5.38
2023-02-07T04:05:20.479Z,5.65
2023-02-07T04:07:48.431Z,5.57
2023-02-07T04:10:21.481Z,6.18
2023-02-07T04:12:48.434Z,5.55
2023-02-07T04:15:42.045Z,5.85
2023-02-07T04:18:34.446Z,5.20
2023-02-07T04:21:26.453Z,6.32
2023-02-07T04:23:54.462Z,5.78
2023-02-07T04:26:27.434Z,6.57
2023-02-07T04:28:54.443Z,6.63
2023-02-07T04:31:22.570Z,6.10
2023-02-07T04:33:50.875Z,7.03
2023-02-07T04:36:18.874Z,6.05
2023-02-07T04:38:51.771Z,6.65
2023-02-07T04:41:20.598Z,6.45
2023-02-07T04:43:48.729Z,6.03
2023-02-07T04:46:16.985Z,6.38
2023-02-07T04:48:44.908Z,5.70
2023-02-07T04:51:12.424Z,5.68
2023-02-07T04:53:40.508Z,7.00
2023-02-07T04:59:24.516Z,5.28
2023-02-07T05:02:21.491Z,6.30
2023-02-07T05:04:48.433Z,5.32
2023-02-07T05:07:16.635Z,5.68
2023-02-07T05:09:44.486Z,6.78
2023-02-07T05:12:13.071Z,6.32
2023-02-07T05:14:40.428Z,6.10
2023-02-07T05:17:08.423Z,6.05
2023-02-07T05:19:36.472Z,5.45
2023-02-07T05:22:09.478Z,5.47
2023-02-07T05:24:36.528Z,5.82
2023-02-07T05:27:08.471Z,6.50
2023-02-07T05:29:36.521Z,5.65
2023-02-07T05:32:23.265Z,5.00
2023-02-07T05:34:50.444Z,6.38
2023-02-07T05:37:18.395Z,5.95
2023-02-07T05:39:46.386Z,6.88
2023-02-07T05:42:14.450Z,6.22
2023-02-07T05:44:42.454Z,6.20
2023-02-07T05:47:10.425Z,6.50
2023-02-07T05:49:39.278Z,9.63
2023-02-07T05:52:06.399Z,8.00
2023-02-07T05:54:34.783Z,7.80
2023-02-07T05:57:02.522Z,7.93
2023-02-07T05:59:30.516Z,8.10
2023-02-07T06:01:58.498Z,7.78
2023-02-07T06:04:26.462Z,7.03
2023-02-07T06:06:54.556Z,8.05
2023-02-07T06:09:22.606Z,7.32
2023-02-07T06:11:56.040Z,5.80
2023-02-07T06:14:29.436Z,6.50
2023-02-07T06:16:56.422Z,6.25
2023-02-07T06:19:24.554Z,6.53
2023-02-07T06:21:57.488Z,5.85
2023-02-07T06:24:24.561Z,7.03
2023-02-07T06:26:52.466Z,6.18
2023-02-07T06:29:24.515Z,6.25
2023-02-07T06:31:52.428Z,6.45
2023-02-07T06:34:20.510Z,6.22
2023-02-07T06:36:48.399Z,6.90
2023-02-07T06:39:16.610Z,7.22
2023-02-07T06:41:44.367Z,6.55
2023-02-07T06:44:18.775Z,6.75
2023-02-07T06:46:59.302Z,6.60
2023-02-07T06:49:37.521Z,6.70
2023-02-07T06:52:05.011Z,7.07
2023-02-07T06:57:38.953Z,6.40
2023-02-07T07:00:07.030Z,7.35
2023-02-07T07:02:34.636Z,6.28
2023-02-07T07:05:11.220Z,6.50
2023-02-07T07:07:50.029Z,6.82
2023-02-07T07:10:24.274Z,8.23
2023-02-07T07:13:03.756Z,7.07
2023-02-07T07:16:07.022Z,7.20
2023-02-07T07:18:44.131Z,7.25
2023-02-07T07:21:17.867Z,7.47
2023-02-07T07:23:59.800Z,7.38
2023-02-07T07:26:47.089Z,8.07
2023-02-07T07:29:35.196Z,7.47
2023-02-07T07:32:19.797Z,7.53
2023-02-07T07:38:08.843Z,7.68
2023-02-07T07:40:44.299Z,8.02
2023-02-07T07:43:25.913Z,7.85
2023-02-07T07:46:01.815Z,7.28
2023-02-07T07:48:30.643Z,7.25
2023-02-07T07:51:07.139Z,7.72
2023-02-07T07:53:34.833Z,8.15
2023-02-07T07:56:08.915Z,7.63
2023-02-07T07:58:36.719Z,6.70
2023-02-07T08:01:05.069Z,7.90
2023-02-07T08:03:32.965Z,7.45
2023-02-07T08:06:03.694Z,8.95
2023-02-07T08:08:30.677Z,8.13
2023-02-07T08:11:08.599Z,9.48
2023-02-07T08:13:37.529Z,8.75
2023-02-07T08:16:08.818Z,8.45
2023-02-07T08:18:37.448Z,8.68
2023-02-07T08:21:30.999Z,8.23
2023-02-07T08:23:58.402Z,9.55
2023-02-07T08:26:26.462Z,8.75
2023-02-07T08:28:59.515Z,7.75
2023-02-07T08:34:26.393Z,7.68
2023-02-07T08:36:54.580Z,8.50
2023-02-07T08:39:27.422Z,9.77
2023-02-07T08:41:54.411Z,10.23
2023-02-07T08:44:27.431Z,8.50
2023-02-07T08:46:54.379Z,10.30
2023-02-07T08:49:46.391Z,9.45
2023-02-07T08:52:40.964Z,8.02
2023-02-07T08:55:08.901Z,9.07
2023-02-07T08:57:37.134Z,9.60
2023-02-07T09:00:07.009Z,9.90
2023-02-07T09:02:34.649Z,9.10
2023-02-07T09:05:02.934Z,10.52
2023-02-07T09:07:31.648Z,8.50
2023-02-07T09:09:58.659Z,9.18
2023-02-07T09:12:26.628Z,10.10
2023-02-07T09:14:54.396Z,9.30
2023-02-07T09:17:22.526Z,9.68
2023-02-07T09:19:50.522Z,9.02
2023-02-07T09:22:18.465Z,9.52
2023-02-07T09:24:46.415Z,9.45
2023-02-07T09:27:14.612Z,9.60
2023-02-07T09:29:42.527Z,10.25
2023-02-07T09:32:10.907Z,9.95
2023-02-07T09:34:38.470Z,10.73
2023-02-07T09:37:06.613Z,10.90
2023-02-07T09:39:36.977Z,10.70
2023-02-07T09:42:48.468Z,9.93
2023-02-07T09:45:20.539Z,9.57
2023-02-07T09:47:52.446Z,9.80
2023-02-07T09:53:33.581Z,10.48
2023-02-07T09:56:02.556Z,10.52
2023-02-07T09:58:59.303Z,9.95
2023-02-07T10:01:33.573Z,9.77
2023-02-07T10:04:06.452Z,10.65
2023-02-07T10:06:36.697Z,10.27
2023-02-07T10:09:13.934Z,8.02
2023-02-07T10:11:50.502Z,10.70
2023-02-07T10:14:42.651Z,11.57
2023-02-07T10:18:02.012Z,11.55
2023-02-07T10:20:52.181Z,11.20
2023-02-07T10:23:26.490Z,8.85
2023-02-07T10:26:11.902Z,11.77
2023-02-07T10:28:56.131Z,11.02
2023-02-07T10:34:22.255Z,11.45
2023-02-07T10:36:52.929Z,10.40
2023-02-07T10:39:33.356Z,11.63
2023-02-07T10:42:00.474Z,10.57
2023-02-07T10:44:29.473Z,11.45
2023-02-07T10:47:04.073Z,11.23
2023-02-07T10:49:36.560Z,11.07
2023-02-07T10:52:36.852Z,13.02
2023-02-07T10:55:12.800Z,10.30
2023-02-07T10:58:21.240Z,12.93
2023-02-07T11:00:55.024Z,10.32
2023-02-07T11:03:24.597Z,11.88
2023-02-07T11:06:07.909Z,11.68
2023-02-07T11:08:43.187Z,11.77
2023-02-07T11:11:19.518Z,12.18
2023-02-07T11:13:55.295Z,10.48
2023-02-07T11:16:24.586Z,9.13
2023-02-07T11:19:12.588Z,11.13
2023-02-07T11:21:46.725Z,11.10
2023-02-07T11:24:25.182Z,11.15
2023-02-07T11:27:10.739Z,12.57
2023-02-07T11:36:33.286Z,11.35
2023-02-07T11:39:16.933Z,11.80
2023-02-07T11:41:56.193Z,11.50
2023-02-07T11:44:26.052Z,10.70
2023-02-07T11:46:58.482Z,11.00
2023-02-07T11:49:49.068Z,11.73
2023-02-07T11:52:17.415Z,11.07
2023-02-07T11:54:51.394Z,11.20
2023-02-07T11:57:20.943Z,11.05
2023-02-07T12:03:45.063Z,13.07
2023-02-07T12:07:01.450Z,11.95
2023-02-07T12:09:54.509Z,13.32
2023-02-07T12:13:03.266Z,11.93
2023-02-07T12:15:42.420Z,11.93
2023-02-07T12:18:24.789Z,12.23
2023-02-07T12:21:31.264Z,9.45
2023-02-07T12:24:30.699Z,11.88
2023-02-07T12:27:12.303Z,12.95
2023-02-07T12:30:14.649Z,12.63
2023-02-07T12:32:57.745Z,13.45
2023-02-07T12:35:58.522Z,11.40
2023-02-07T12:38:33.370Z,12.00
2023-02-07T12:41:33.924Z,11.85
2023-02-07T12:44:26.408Z,13.25
2023-02-07T12:47:18.356Z,11.43
2023-02-07T12:50:31.642Z,13.90
2023-02-07T12:53:11.448Z,12.35
2023-02-07T12:56:06.634Z,14.57
2023-02-07T12:58:46.411Z,11.90
2023-02-07T13:01:40.196Z,13.45
2023-02-07T13:04:46.965Z,13.20
2023-02-07T13:07:33.430Z,12.63
2023-02-07T13:10:14.282Z,12.15
2023-02-07T13:16:08.323Z,12.43
2023-02-07T13:18:46.069Z,12.60
2023-02-07T13:21:34.228Z,12.60
2023-02-07T13:27:04.048Z,11.32
2023-02-07T13:29:35.492Z,11.30
2023-02-07T13:35:16.301Z,12.98
2023-02-07T13:37:56.601Z,11.52
2023-02-07T13:40:35.388Z,11.52
2023-02-07T13:43:25.567Z,11.13
2023-02-07T13:46:33.813Z,10.25
2023-02-07T13:49:23.644Z,10.52
2023-02-07T13:52:18.849Z,9.60
2023-02-07T13:58:13.370Z,10.00
2023-02-07T14:00:58.553Z,11.05
2023-02-07T14:03:32.020Z,9.68
2023-02-07T14:06:13.467Z,9.63
2023-02-07T14:08:45.708Z,9.05
2023-02-07T14:11:49.239Z,10.40
2023-02-07T14:14:29.205Z,11.55
2023-02-07T14:16:59.872Z,10.93
2023-02-07T14:22:44.383Z,10.68
2023-02-07T14:25:22.044Z,10.27
2023-02-07T14:27:50.402Z,10.88
2023-02-07T14:30:33.728Z,10.05
2023-02-07T14:33:09.039Z,10.00
2023-02-07T14:35:38.919Z,10.25
2023-02-07T14:38:32.261Z,11.23
2023-02-07T14:41:13.444Z,9.75
2023-02-07T14:43:40.442Z,10.48
2023-02-07T14:46:34.347Z,10.45
2023-02-07T14:49:22.549Z,10.50
2023-02-07T14:51:59.843Z,10.52
2023-02-07T14:54:40.569Z,10.85
2023-02-07T14:57:41.509Z,10.20
2023-02-07T15:00:14.435Z,11.35
2023-02-07T15:02:58.362Z,10.48
2023-02-07T15:05:38.636Z,11.20
2023-02-07T15:08:17.191Z,10.43
2023-02-07T15:10:52.892Z,9.90
2023-02-07T15:13:47.415Z,10.38
2023-02-07T15:16:18.221Z,10.27
2023-02-07T15:19:01.041Z,10.40
2023-02-07T15:21:38.791Z,9.63
2023-02-07T15:24:16.224Z,9.98
2023-02-07T15:26:49.447Z,10.25
2023-02-07T15:29:27.169Z,9.93
2023-02-07T15:31:54.939Z,9.45
2023-02-07T15:34:25.296Z,9.07
2023-02-07T15:36:53.178Z,9.50
2023-02-07T15:39:24.861Z,11.02
2023-02-07T15:41:54.556Z,11.48
2023-02-07T15:44:45.888Z,9.25
2023-02-07T15:47:29.827Z,10.10
2023-02-07T15:50:01.311Z,9.52
2023-02-07T15:52:42.975Z,9.52
2023-02-07T15:55:22.535Z,8.73
2023-02-07T15:57:51.400Z,10.00
2023-02-07T16:00:23.818Z,10.88
2023-02-07T16:03:21.727Z,9.07
2023-02-07T16:05:49.247Z,9.95
2023-02-07T16:08:37.470Z,10.50
2023-02-07T16:11:26.041Z,10.25
2023-02-07T16:13:54.391Z,9.60
2023-02-07T16:16:32.718Z,8.68
2023-02-07T16:19:28.113Z,9.68
2023-02-07T16:22:08.421Z,7.32
2023-02-07T16:25:05.806Z,8.82
2023-02-07T16:30:36.144Z,9.05
2023-02-07T16:33:13.021Z,9.82
2023-02-07T16:35:40.608Z,9.68
2023-02-07T16:41:02.491Z,9.63
2023-02-07T16:43:44.494Z,11.00
2023-02-07T16:46:12.689Z,10.32
2023-02-07T16:48:40.588Z,9.68
2023-02-07T16:51:08.581Z,9.65
2023-02-07T16:53:41.676Z,10.10
2023-02-07T16:56:14.121Z,11.40
2023-02-07T16:58:46.700Z,10.15
2023-02-07T17:01:19.983Z,9.68
2023-02-07T17:03:48.525Z,11.43
2023-02-07T17:06:18.338Z,11.85
2023-02-07T17:08:53.982Z,10.93
2023-02-07T17:11:27.154Z,11.25
2023-02-07T17:14:00.422Z,12.50
2023-02-07T17:16:33.454Z,13.23
2023-02-07T17:19:01.472Z,12.23
2023-02-07T17:21:33.471Z,11.73
2023-02-07T17:24:00.376Z,10.20
2023-02-07T17:26:31.919Z,11.18
2023-02-07T17:29:04.872Z,11.65
2023-02-07T17:31:32.913Z,11.57
2023-02-07T17:34:00.545Z,11.07
2023-02-07T17:36:29.027Z,12.23
2023-02-07T17:38:58.884Z,11.52
2023-02-07T17:41:26.931Z,10.80
2023-02-07T17:43:59.765Z,10.68
2023-02-07T17:46:28.102Z,12.57
2023-02-07T17:48:56.618Z,12.05
2023-02-07T17:51:48.410Z,12.75
2023-02-07T17:54:16.544Z,14.52
2023-02-07T17:56:44.497Z,16.45
2023-02-07T17:59:23.855Z,20.13
2023-02-07T18:01:57.692Z,16.52
2023-02-07T18:04:24.430Z,15.90
2023-02-07T18:06:52.468Z,16.40
2023-02-07T18:12:12.488Z,14.07
2023-02-07T18:14:40.415Z,14.32
2023-02-07T18:17:09.215Z,14.77
2023-02-07T18:19:41.390Z,13.93
2023-02-07T18:22:08.457Z,13.30
2023-02-07T18:24:51.424Z,14.10
2023-02-07T18:27:21.655Z,13.73
2023-02-07T18:29:50.413Z,15.02
2023-02-07T18:32:44.140Z,15.90
2023-02-07T18:35:12.781Z,14.98
2023-02-07T18:37:49.367Z,16.75
2023-02-07T18:40:22.795Z,16.10
2023-02-07T18:42:53.973Z,14.38
2023-02-07T18:45:26.878Z,13.95
2023-02-07T18:48:01.593Z,14.55
2023-02-07T18:50:37.235Z,14.70
2023-02-07T18:53:37.443Z,15.00
2023-02-07T18:56:20.508Z,14.25
2023-02-07T18:58:56.824Z,14.70
2023-02-07T19:01:34.650Z,14.95
2023-02-07T19:04:12.758Z,13.50
2023-02-07T19:06:56.065Z,14.57
2023-02-07T19:09:24.545Z,15.63
2023-02-07T19:12:16.557Z,14.55
2023-02-07T19:14:44.473Z,14.05
2023-02-07T19:17:20.452Z,13.43
2023-02-07T19:19:48.558Z,14.52
2023-02-07T19:22:26.754Z,14.75
2023-02-07T19:25:07.491Z,13.98
2023-02-07T19:27:34.575Z,15.10
2023-02-07T19:30:02.394Z,12.77
2023-02-07T19:32:30.406Z,12.63
2023-02-07T19:34:58.398Z,14.73
2023-02-07T19:37:30.488Z,13.85
2023-02-07T19:42:55.901Z,14.05
2023-02-07T19:45:26.480Z,13.57
2023-02-07T19:47:54.602Z,13.18
2023-02-07T19:50:22.618Z,13.50
2023-02-07T19:52:50.382Z,12.80
2023-02-07T19:55:18.527Z,12.85
2023-02-07T19:57:50.451Z,13.30
2023-02-07T20:00:18.612Z,14.73
2023-02-07T20:02:46.391Z,13.43
2023-02-07T20:05:45.722Z,12.27
2023-02-07T20:08:13.702Z,12.20
2023-02-07T20:10:47.793Z,16.42
2023-02-07T20:13:20.162Z,15.40
2023-02-07T20:15:48.554Z,12.93
2023-02-07T20:18:40.904Z,12.02
2023-02-07T20:21:11.945Z,12.55
2023-02-07T20:23:46.818Z,14.18
2023-02-07T20:26:18.433Z,12.55
2023-02-07T20:28:51.066Z,12.85
2023-02-07T20:31:22.334Z,12.30
2023-02-07T20:33:55.474Z,13.13
2023-02-07T20:36:22.929Z,13.38
2023-02-07T20:38:55.595Z,14.18
2023-02-07T20:41:30.606Z,13.10
2023-02-07T20:44:05.098Z,12.88
2023-02-07T20:46:47.263Z,13.30
2023-02-07T20:49:19.687Z,14.93
2023-02-07T20:51:50.382Z,14.07
2023-02-07T20:57:12.421Z,13.98
2023-02-07T20:59:44.418Z,15.15
2023-02-07T21:02:12.417Z,14.43
2023-02-07T21:04:40.488Z,12.30
2023-02-07T21:07:12.562Z,13.27
2023-02-07T21:12:32.480Z,14.55
2023-02-07T21:15:00.427Z,15.02
2023-02-07T21:17:28.452Z,15.95
2023-02-07T21:25:43.329Z,16.17
2023-02-07T21:28:10.725Z,18.02
2023-02-07T21:30:39.697Z,19.13
2023-02-07T21:33:08.564Z,17.05
2023-02-07T21:35:36.524Z,15.57
2023-02-07T21:38:04.504Z,13.95
2023-02-07T21:40:32.438Z,15.75
2023-02-07T21:43:00.410Z,14.48
2023-02-07T21:45:28.557Z,13.70
2023-02-07T21:47:56.625Z,15.57
2023-02-07T21:50:28.542Z,14.35
2023-02-07T21:52:56.372Z,14.30
2023-02-07T21:55:24.423Z,14.80
2023-02-07T21:57:57.412Z,14.93
2023-02-07T22:00:24.412Z,18.02
2023-02-07T22:02:52.413Z,16.27
2023-02-07T22:05:20.387Z,17.23
2023-02-07T22:07:56.268Z,17.27
2023-02-07T22:10:25.032Z,16.55
2023-02-07T22:12:52.462Z,16.73
2023-02-07T22:15:20.623Z,16.25
2023-02-07T22:17:52.538Z,15.23
2023-02-07T22:20:46.269Z,14.90
2023-02-07T22:23:39.688Z,14.85
2023-02-07T22:26:07.510Z,15.75
2023-02-07T22:28:35.111Z,16.85
2023-02-07T22:31:08.676Z,15.43
2023-02-07T22:33:36.481Z,14.88
2023-02-07T22:36:04.947Z,15.75
2023-02-07T22:38:32.385Z,17.50
2023-02-07T22:41:09.070Z,18.40
2023-02-07T22:43:37.349Z,17.30
2023-02-07T22:46:14.792Z,16.88
2023-02-07T22:48:42.945Z,17.88
2023-02-07T22:51:35.471Z,16.02
2023-02-07T22:54:06.336Z,14.25
2023-02-07T22:56:36.636Z,13.77
2023-02-07T22:59:05.739Z,15.02
2023-02-07T23:01:36.719Z,15.38
2023-02-07T23:04:30.789Z,13.40
2023-02-07T23:06:58.467Z,14.40
2023-02-07T23:09:26.559Z,14.65
2023-02-07T23:11:54.805Z,14.68
2023-02-07T23:14:22.689Z,14.00
2023-02-07T23:16:51.188Z,14.75
2023-02-07T23:19:19.064Z,14.25
2023-02-07T23:22:12.528Z,13.68
2023-02-07T23:24:46.289Z,13.55
2023-02-07T23:27:15.510Z,13.85
2023-02-07T23:32:34.615Z,12.25
2023-02-07T23:35:02.689Z,11.70
2023-02-07T23:37:36.681Z,12.35
2023-02-07T23:40:05.034Z,11.40
2023-02-07T23:42:32.607Z,12.50
2023-02-07T23:47:52.730Z,10.90
2023-02-07T23:50:22.389Z,11.50
2023-02-07T23:52:50.474Z,11.32
2023-02-07T23:55:22.482Z,12.65
2023-02-07T23:57:50.849Z,11.20
